Time;durP1;ratioP1;P1;durP2;ratioP2;P2;SDS_P1;SDS_P2;PMS_P1;PMS_P2;Temp;Humidity;BMP_temperature;BMP_pressure;BME280_temperature;BME280_humidity;BME280_pressure;Samples;Min_cycle;Max_cycle;Signal;HPM_P1;HPM_P2
2022/05/30 00:01:23;;;;;;;11.93;8.88;;;;;;;18.71;79.92;99122.28;5070904;28;20119;-34
2022/05/30 00:03:49;;;;;;;12.70;8.73;;;;;;;18.52;81.71;99144.72;5070204;28;20032;-34
2022/05/30 00:06:18;;;;;;;15.85;8.82;;;;;;;18.57;82.03;99143.81;5052603;28;20024;-29
2022/05/30 00:08:45;;;;;;;11.15;8.73;;;;;;;18.83;81.01;99169.34;5052633;28;20491;-30
2022/05/30 00:11:12;;;;;;;13.05;9.27;;;;;;;18.74;85.05;99189.22;5052426;28;20086;-29
2022/05/30 00:13:39;;;;;;;15.32;9.65;;;;;;;18.72;86.70;99177.91;5052079;28;20496;-35
2022/05/30 00:16:07;;;;;;;16.17;9.85;;;;;;;18.85;86.58;99177.97;5069143;28;20040;-29
2022/05/30 00:18:32;;;;;;;;;;;;;;;19.12;82.32;99173.72;5071107;28;20031;-29
2022/05/30 00:20:58;;;;;;;14.82;10.15;;;;;;;18.94;82.65;99147.56;5070614;28;19912;-30
2022/05/30 00:23:24;;;;;;;14.73;9.88;;;;;;;18.99;83.06;99163.72;5070339;28;20123;-33
2022/05/30 00:25:49;;;;;;;12.48;9.43;;;;;;;19.14;83.22;99173.44;5052200;28;20036;-31
2022/05/30 00:28:18;;;;;;;15.10;10.23;;;;;;;18.81;87.81;99187.75;5070377;28;20031;-29
2022/05/30 00:30:45;;;;;;;13.32;9.75;;;;;;;18.53;91.05;99175.22;5070211;28;20024;-29
2022/05/30 00:33:12;;;;;;;13.63;10.50;;;;;;;18.45;89.54;99195.59;5051996;28;20075;-35
2022/05/30 00:35:38;;;;;;;15.30;10.73;;;;;;;18.57;89.98;99184.31;5051738;28;20078;-36
2022/05/30 00:38:04;;;;;;;14.57;10.38;;;;;;;18.78;90.60;99206.44;5052076;28;20085;-31
2022/05/30 00:40:31;;;;;;;13.18;10.25;;;;;;;18.74;90.30;99203.53;5051960;28;20032;-31
2022/05/30 00:43:15;;;;;;;13.25;10.43;;;;;;;18.84;88.97;99211.50;5068582;28;20078;-29
2022/05/30 00:45:41;;;;;;;15.43;10.90;;;;;;;18.85;88.73;99196.88;5051461;28;20028;-30
2022/05/30 00:48:07;;;;;;;13.30;9.85;;;;;;;18.84;88.61;99197.97;5052004;28;20078;-30
2022/05/30 00:50:33;;;;;;;14.18;9.55;;;;;;;18.86;86.88;99201.19;5051757;28;20036;-29
2022/05/30 00:52:58;;;;;;;12.77;9.38;;;;;;;18.75;89.00;99207.00;5069897;28;20751;-30
2022/05/30 00:55:24;;;;;;;15.15;8.98;;;;;;;18.82;89.60;99216.38;5068176;28;20028;-33
2022/05/30 00:57:50;;;;;;;13.70;9.15;;;;;;;18.82;86.20;99216.38;5069464;28;20033;-31
2022/05/30 01:00:19;;;;;;;13.23;9.02;;;;;;;19.06;85.61;99231.66;5068813;28;20036;-29
2022/05/30 01:02:46;;;;;;;12.95;9.13;;;;;;;18.95;87.73;99220.22;5069551;28;20024;-29
2022/05/30 01:08:01;;;;;;;13.88;8.93;;;;;;;18.98;86.19;99235.03;5069324;28;20101;-38
2022/05/30 01:10:27;;;;;;;13.25;9.63;;;;;;;19.33;84.14;99224.72;5050870;28;20039;-38
2022/05/30 01:12:56;;;;;;;13.82;9.18;;;;;;;19.55;82.99;99232.19;5069323;28;20029;-32
2022/05/30 01:15:29;;;;;;;13.55;9.15;;;;;;;19.51;81.43;99231.97;5051389;28;20508;-29
2022/05/30 01:18:15;;;;;;;18.17;9.85;;;;;;;19.58;81.23;99224.28;5069367;28;20060;-32
2022/05/30 01:20:48;;;;;;;13.38;9.07;;;;;;;19.33;83.26;99227.44;5051156;28;20032;-29
2022/05/30 01:23:23;;;;;;;15.95;10.23;;;;;;;19.64;81.72;99223.09;5069319;28;20036;-30
2022/05/30 01:26:14;;;;;;;11.25;8.45;;;;;;;19.52;79.49;99217.34;5050921;28;20037;-29
2022/05/30 01:29:01;;;;;;;16.05;8.93;;;;;;;19.38;80.39;99219.25;5069208;28;20032;-33
2022/05/30 01:31:28;;;;;;;13.20;8.75;;;;;;;19.42;78.71;99212.13;5050527;28;20820;-29
2022/05/30 01:33:54;;;;;;;12.10;8.50;;;;;;;19.07;82.00;99208.97;5050610;28;20028;-33
2022/05/30 01:36:24;;;;;;;16.05;8.88;;;;;;;18.83;83.02;99196.38;5069187;28;20717;-34
2022/05/30 01:38:50;;;;;;;12.90;8.52;;;;;;;18.98;81.83;99202.63;5050858;28;20036;-30
2022/05/30 01:41:16;;;;;;;13.48;9.45;;;;;;;19.14;81.49;99209.38;5050512;28;20397;-30
2022/05/30 01:43:41;;;;;;;12.45;9.15;;;;;;;19.25;80.81;99212.72;5068690;28;20055;-31
2022/05/30 01:46:11;;;;;;;14.43;10.02;;;;;;;19.24;80.01;99201.09;5068551;28;20112;-31
2022/05/30 01:48:37;;;;;;;12.70;8.48;;;;;;;19.14;78.87;99211.28;5050873;28;20040;-29
2022/05/30 01:51:03;;;;;;;15.20;8.57;;;;;;;18.99;78.18;99196.91;5067349;28;20124;-31
2022/05/30 01:53:28;;;;;;;13.82;8.60;;;;;;;18.71;80.43;99206.00;5067318;28;20507;-30
2022/05/30 01:55:54;;;;;;;14.25;8.98;;;;;;;18.78;80.10;99203.75;5068707;28;20028;-37
2022/05/30 01:58:21;;;;;;;12.00;8.25;;;;;;;18.94;78.38;99207.00;5069115;28;20032;-33
2022/05/30 02:00:47;;;;;;;13.05;8.48;;;;;;;19.04;78.58;99204.13;5068331;28;20480;-30
2022/05/30 02:03:12;;;;;;;14.90;8.48;;;;;;;18.92;77.93;99190.28;5050432;28;20047;-32
2022/05/30 02:05:38;;;;;;;13.48;9.00;;;;;;;19.03;77.00;99199.84;5068412;28;20028;-32
2022/05/30 02:08:03;;;;;;;11.23;8.35;;;;;;;18.89;76.52;99199.00;5068381;28;20055;-28
2022/05/30 02:10:31;;;;;;;11.98;8.82;;;;;;;18.74;78.12;99211.63;5068298;28;20094;-29
2022/05/30 02:12:56;;;;;;;13.20;8.63;;;;;;;18.50;80.46;99213.59;5065547;28;20029;-30
2022/05/30 02:15:22;;;;;;;12.77;9.10;;;;;;;18.65;79.55;99194.47;5068460;28;20036;-33
2022/05/30 02:17:47;;;;;;;14.38;9.07;;;;;;;18.55;79.95;99203.53;5068101;28;20020;-34
2022/05/30 02:20:13;;;;;;;15.38;8.90;;;;;;;18.46;80.27;99214.19;5068156;28;20446;-34
2022/05/30 02:22:38;;;;;;;14.90;8.50;;;;;;;18.33;81.96;99217.63;5068140;28;20098;-29
2022/05/30 02:25:04;;;;;;;12.98;8.38;;;;;;;18.32;79.57;99197.09;5068027;28;20052;-30
2022/05/30 02:27:30;;;;;;;11.10;7.68;;;;;;;18.20;80.03;99205.63;5049884;28;20118;-31
2022/05/30 02:29:56;;;;;;;11.10;7.80;;;;;;;17.93;81.39;99200.84;5067839;28;20067;-30
2022/05/30 02:32:21;;;;;;;14.05;8.38;;;;;;;17.99;81.45;99198.91;5049731;28;20024;-31
2022/05/30 02:37:31;;;;;;;15.02;8.85;;;;;;;17.90;83.58;99214.09;5067754;28;20036;-29
2022/05/30 02:39:57;;;;;;;12.38;8.95;;;;;;;17.86;83.55;99211.19;5067692;28;20028;-32
2022/05/30 02:42:23;;;;;;;12.95;9.05;;;;;;;18.15;81.86;99223.78;5067714;28;20032;-31
2022/05/30 02:44:49;;;;;;;13.27;8.82;;;;;;;18.13;81.22;99213.28;5067675;28;20063;-30
2022/05/30 02:47:16;;;;;;;13.13;8.77;;;;;;;18.25;81.91;99231.75;5067700;28;20025;-29
2022/05/30 02:49:42;;;;;;;14.38;9.40;;;;;;;18.35;80.95;99223.53;5048771;28;20115;-30
2022/05/30 02:52:07;;;;;;;12.38;9.25;;;;;;;18.14;80.29;99227.56;5067626;28;20115;-30
2022/05/30 02:54:33;;;;;;;14.52;9.50;;;;;;;17.50;83.12;99257.38;5067507;28;20036;-30
2022/05/30 02:56:59;;;;;;;12.63;8.77;;;;;;;17.24;84.61;99249.53;5067371;28;20050;-30
2022/05/30 02:59:26;;;;;;;12.15;9.05;;;;;;;17.12;84.74;99265.25;5067446;28;20024;-29
2022/05/30 03:01:52;;;;;;;13.75;8.38;;;;;;;16.97;85.82;99276.94;5048862;28;20029;-29
2022/05/30 03:04:18;;;;;;;9.52;7.10;;;;;;;16.36;87.37;99271.88;5066762;28;20072;-30
2022/05/30 03:06:43;;;;;;;10.95;8.35;;;;;;;16.73;87.18;99282.19;5067224;28;20050;-31
2022/05/30 03:09:10;;;;;;;11.25;8.70;;;;;;;16.96;85.15;99271.81;5049070;28;20431;-31
2022/05/30 03:11:36;;;;;;;14.20;9.45;;;;;;;17.16;85.74;99290.56;5032771;28;20032;-31
2022/05/30 03:14:02;;;;;;;15.60;11.20;;;;;;;17.56;84.73;99290.47;5066798;28;20032;-34
2022/05/30 03:16:28;;;;;;;17.23;9.90;;;;;;;17.46;85.90;99299.47;5049130;28;20488;-29
2022/05/30 03:18:54;;;;;;;13.48;9.63;;;;;;;17.47;85.39;99301.09;5067029;28;20040;-29
2022/05/30 03:21:19;;;;;;;13.95;10.55;;;;;;;17.71;84.33;99306.50;5067130;28;20032;-29
2022/05/30 03:23:45;;;;;;;14.60;10.68;;;;;;;17.82;83.32;99312.63;5066249;28;20113;-31
2022/05/30 03:26:12;;;;;;;13.70;9.95;;;;;;;17.74;83.89;99305.16;5067163;28;20115;-29
2022/05/30 03:28:38;;;;;;;18.17;10.60;;;;;;;17.76;83.81;99302.97;5048857;28;20032;-29
2022/05/30 03:31:07;;;;;;;15.57;10.63;;;;;;;17.96;83.36;99313.59;5067157;28;20103;-30
2022/05/30 03:33:33;;;;;;;15.18;10.73;;;;;;;17.75;85.18;99325.63;5066628;28;20043;-31
2022/05/30 03:35:59;;;;;;;15.85;10.80;;;;;;;18.02;84.20;99319.72;5066377;28;20139;-30
2022/05/30 03:38:26;;;;;;;16.30;11.68;;;;;;;17.98;83.96;99314.09;5066489;28;20047;-29
2022/05/30 03:40:51;;;;;;;15.70;11.65;;;;;;;17.96;84.26;99320.84;5066531;28;20021;-30
2022/05/30 03:43:16;;;;;;;15.73;11.30;;;;;;;17.94;84.62;99323.84;5066839;28;20051;-29
2022/05/30 03:45:44;;;;;;;16.35;10.77;;;;;;;17.95;84.37;99305.78;5066565;28;20030;-30
2022/05/30 03:48:12;;;;;;;18.23;11.57;;;;;;;17.93;85.18;99330.31;5066719;28;20024;-32
2022/05/30 03:50:38;;;;;;;;;;;;;;;18.10;84.33;99339.88;5067524;28;20112;-29
2022/05/30 03:53:07;;;;;;;13.05;9.32;;;;;;;17.96;83.21;99316.28;5064941;28;19973;-28
2022/05/30 03:55:40;;;;;;;13.50;9.90;;;;;;;18.14;82.32;99340.91;5066740;28;20522;-31
2022/05/30 03:58:07;;;;;;;13.80;9.27;;;;;;;18.21;80.29;99325.19;5048552;28;20033;-33
2022/05/30 04:00:34;;;;;;;12.80;9.18;;;;;;;18.28;81.90;99333.72;5048528;28;20435;-29
2022/05/30 04:03:02;;;;;;;13.57;9.25;;;;;;;18.47;80.72;99341.88;5048443;28;20492;-29
2022/05/30 04:05:28;;;;;;;16.52;9.25;;;;;;;18.49;80.98;99345.09;5066481;28;20052;-29
2022/05/30 04:07:55;;;;;;;15.25;9.52;;;;;;;18.37;81.43;99321.22;5066378;28;20105;-29
2022/05/30 04:10:21;;;;;;;17.25;9.88;;;;;;;18.65;81.75;99340.28;5066235;28;20476;-31
2022/05/30 04:12:47;;;;;;;13.73;8.82;;;;;;;18.78;81.41;99334.19;5048242;28;20094;-30
2022/05/30 04:15:21;;;;;;;13.15;9.40;;;;;;;18.94;80.88;99347.50;5066833;28;20036;-29
2022/05/30 04:17:48;;;;;;;15.48;9.13;;;;;;;19.01;79.63;99343.34;5047873;28;20086;-31
2022/05/30 04:20:13;;;;;;;14.82;8.82;;;;;;;18.84;82.79;99338.47;5066278;28;20028;-34
2022/05/30 04:22:39;;;;;;;12.65;10.60;;;;;;;18.91;80.97;99342.69;5066291;28;20035;-31
2022/05/30 04:25:05;;;;;;;15.57;9.40;;;;;;;19.16;78.25;99339.59;5066294;28;20027;-30
2022/05/30 04:27:32;;;;;;;19.05;9.27;;;;;;;19.18;77.34;99358.22;5047825;28;20112;-30
2022/05/30 04:29:57;;;;;;;13.90;9.52;;;;;;;19.21;77.63;99353.06;5066158;28;20236;-30
2022/05/30 04:32:23;;;;;;;18.40;9.57;;;;;;;19.01;78.08;99353.34;5065899;28;20118;-33
2022/05/30 04:34:49;;;;;;;16.90;8.80;;;;;;;18.55;79.32;99356.63;5066127;28;20122;-29
2022/05/30 04:37:14;;;;;;;14.80;10.15;;;;;;;18.71;80.72;99368.84;5067927;28;20571;-32
2022/05/30 04:39:40;;;;;;;17.38;9.52;;;;;;;18.58;81.12;99377.66;5069592;28;20036;-29
2022/05/30 04:42:06;;;;;;;15.10;10.63;;;;;;;18.59;81.87;99373.84;5069860;28;20024;-31
2022/05/30 04:44:32;;;;;;;14.95;9.82;;;;;;;18.44;81.58;99367.53;5069660;28;21017;-30
2022/05/30 04:46:58;;;;;;;15.13;9.85;;;;;;;18.56;81.56;99374.44;5069784;28;20024;-29
2022/05/30 04:49:25;;;;;;;14.98;10.07;;;;;;;18.48;81.32;99365.88;5051366;28;20036;-34
2022/05/30 04:51:51;;;;;;;14.25;10.05;;;;;;;18.55;82.08;99389.84;5069406;28;20028;-32
2022/05/30 04:54:18;;;;;;;14.98;10.30;;;;;;;18.51;82.18;99378.03;5069704;28;20528;-29
2022/05/30 04:56:44;;;;;;;15.13;9.93;;;;;;;18.93;82.03;99399.94;5051297;28;20029;-32
2022/05/30 04:59:10;;;;;;;13.77;9.55;;;;;;;19.19;79.50;99381.47;5069430;28;20747;-33
2022/05/30 05:01:37;;;;;;;14.00;9.15;;;;;;;19.39;78.63;99391.16;5051003;28;20487;-36
2022/05/30 05:04:04;;;;;;;13.60;8.15;;;;;;;19.46;77.40;99387.00;5051383;28;20495;-32
2022/05/30 05:06:30;;;;;;;12.82;9.27;;;;;;;19.44;77.97;99385.69;5069046;28;20029;-34
2022/05/30 05:09:17;;;;;;;15.20;8.57;;;;;;;19.52;76.28;99382.31;5069269;28;20081;-30
2022/05/30 05:11:46;;;;;;;13.13;8.10;;;;;;;19.55;75.98;99397.16;5067594;28;20032;-29
2022/05/30 05:14:12;;;;;;;12.85;8.02;;;;;;;19.67;76.09;99386.66;5068912;28;20113;-31
2022/05/30 05:16:38;;;;;;;14.65;8.77;;;;;;;19.92;75.32;99404.44;5051216;28;20032;-29
2022/05/30 05:19:05;;;;;;;13.77;8.88;;;;;;;19.93;74.78;99408.72;5069356;28;20032;-29
2022/05/30 05:21:33;;;;;;;14.38;8.63;;;;;;;19.82;74.69;99393.78;5068952;28;20067;-29
2022/05/30 05:23:59;;;;;;;12.80;9.40;;;;;;;19.92;75.24;99390.91;5050810;28;20028;-30
2022/05/30 05:26:26;;;;;;;14.57;9.73;;;;;;;19.96;74.23;99416.25;5068964;28;20032;-33
2022/05/30 05:28:52;;;;;;;15.18;10.43;;;;;;;19.79;76.34;99410.59;5050716;28;20165;-32
2022/05/30 05:31:32;;;;;;;14.18;10.10;;;;;;;19.81;76.01;99413.81;5051047;28;20025;-30
2022/05/30 05:33:59;;;;;;;14.07;10.35;;;;;;;19.97;75.99;99428.69;5068347;28;20036;-29
2022/05/30 05:36:31;;;;;;;17.50;10.70;;;;;;;20.28;75.00;99412.69;5068697;28;20044;-35
2022/05/30 05:38:57;;;;;;;14.98;10.15;;;;;;;20.33;74.24;99432.66;5050369;28;20036;-29
2022/05/30 05:41:23;;;;;;;14.73;9.38;;;;;;;20.54;72.94;99435.78;5068530;28;20157;-31
2022/05/30 05:43:49;;;;;;;12.55;8.77;;;;;;;20.55;72.17;99429.25;5050380;28;20067;-29
2022/05/30 05:46:20;;;;;;;13.50;8.25;;;;;;;20.73;70.85;99441.94;5068482;28;20028;-31
2022/05/30 05:48:45;;;;;;;10.98;7.47;;;;;;;20.77;69.39;99440.22;5066986;28;20032;-29
2022/05/30 05:51:13;;;;;;;11.70;7.30;;;;;;;21.13;70.48;99442.22;5068509;28;20032;-30
2022/05/30 05:53:40;;;;;;;10.40;5.60;;;;;;;21.25;67.29;99441.69;5049888;28;20086;-29
2022/05/30 05:56:13;;;;;;;8.70;5.50;;;;;;;21.41;66.76;99451.09;5050325;28;20058;-32
2022/05/30 05:58:39;;;;;;;10.43;4.70;;;;;;;21.36;63.49;99456.59;5050242;28;20032;-33
2022/05/30 06:01:07;;;;;;;8.90;4.65;;;;;;;21.41;65.08;99447.53;5068227;28;20024;-29
2022/05/30 06:03:32;;;;;;;5.72;3.92;;;;;;;21.41;63.21;99444.84;5050225;28;20125;-29
2022/05/30 06:05:57;;;;;;;9.05;4.43;;;;;;;21.45;62.84;99443.16;5067784;28;20165;-30
2022/05/30 06:08:23;;;;;;;14.32;4.50;;;;;;;21.74;63.13;99439.22;5067907;28;20028;-32
2022/05/30 06:13:33;;;;;;;8.10;4.00;;;;;;;22.26;60.77;99461.31;5067834;28;20031;-31
2022/05/30 06:15:58;;;;;;;8.95;4.20;;;;;;;22.19;60.68;99471.75;5067790;28;20032;-31
2022/05/30 06:18:24;;;;;;;6.97;4.25;;;;;;;22.11;59.94;99464.38;5068176;28;20025;-31
2022/05/30 06:20:49;;;;;;;7.90;3.95;;;;;;;22.13;60.58;99462.13;5067719;28;20070;-30
2022/05/30 06:23:15;;;;;;;8.18;3.45;;;;;;;22.43;58.90;99450.53;5067766;28;20385;-30
2022/05/30 06:25:42;;;;;;;8.73;3.95;;;;;;;22.45;58.16;99444.78;5067442;28;20033;-30
2022/05/30 06:28:08;;;;;;;7.45;3.45;;;;;;;22.45;56.83;99469.22;5067818;28;20498;-31
2022/05/30 06:30:36;;;;;;;8.60;3.60;;;;;;;22.50;56.76;99454.72;5066137;28;20104;-30
2022/05/30 06:33:01;;;;;;;;;;;;;;;22.83;56.83;99474.19;5049874;28;20033;-30
2022/05/30 06:35:27;;;;;;;9.20;3.65;;;;;;;22.78;55.29;99475.13;5067238;28;20408;-32
2022/05/30 06:37:52;;;;;;;7.80;3.67;;;;;;;22.72;53.99;99459.25;5067368;28;20488;-31
2022/05/30 06:40:18;;;;;;;7.25;3.42;;;;;;;22.57;55.08;99457.78;5067487;28;20549;-34
2022/05/30 06:42:43;;;;;;;8.10;3.60;;;;;;;22.97;53.98;99463.19;5067253;28;20028;-32
2022/05/30 06:45:09;;;;;;;5.07;3.30;;;;;;;23.22;53.78;99476.06;5067470;28;20136;-34
2022/05/30 06:47:34;;;;;;;13.52;4.60;;;;;;;23.32;55.13;99450.47;5067296;28;20028;-30
2022/05/30 06:50:00;;;;;;;7.40;3.80;;;;;;;23.64;52.18;99468.25;5048864;28;20064;-34
2022/05/30 06:52:25;;;;;;;8.45;4.00;;;;;;;23.63;52.80;99457.69;5067134;28;20033;-30
2022/05/30 06:54:50;;;;;;;9.02;3.58;;;;;;;23.71;52.65;99469.69;5067664;28;20413;-33
2022/05/30 07:00:00;;;;;;;6.68;3.55;;;;;;;23.10;52.08;99459.56;5066359;28;20082;-31
2022/05/30 07:02:25;;;;;;;7.93;4.40;;;;;;;23.21;52.91;99468.19;5048584;28;20028;-33
2022/05/30 07:04:51;;;;;;;7.85;4.20;;;;;;;23.57;53.78;99465.19;5065297;28;20043;-31
2022/05/30 07:07:16;;;;;;;9.13;4.60;;;;;;;23.69;51.14;99482.81;5067129;28;20024;-30
2022/05/30 07:09:42;;;;;;;7.43;4.25;;;;;;;23.58;51.68;99466.81;5066633;28;20020;-30
2022/05/30 07:12:09;;;;;;;8.23;4.28;;;;;;;23.61;52.04;99465.38;5048877;28;20055;-30
2022/05/30 07:14:35;;;;;;;8.93;3.92;;;;;;;23.82;50.67;99476.44;5048756;28;20090;-31
2022/05/30 07:17:00;;;;;;;9.75;4.63;;;;;;;23.99;50.36;99481.06;5048756;28;20044;-29
2022/05/30 07:19:26;;;;;;;12.80;4.78;;;;;;;23.82;51.51;99476.44;5066673;28;20082;-29
2022/05/30 07:21:51;;;;;;;8.48;4.60;;;;;;;23.91;51.33;99466.34;5066774;28;20418;-29
2022/05/30 07:24:17;;;;;;;8.00;4.55;;;;;;;24.16;50.18;99474.78;5066911;28;20762;-30
2022/05/30 07:26:42;;;;;;;8.95;4.20;;;;;;;24.10;50.89;99462.47;5066983;28;20036;-30
2022/05/30 07:29:08;;;;;;;9.95;4.60;;;;;;;24.44;50.06;99473.25;5066878;28;20029;-33
2022/05/30 07:31:34;;;;;;;8.63;3.95;;;;;;;24.63;48.73;99478.34;5066755;28;20115;-29
2022/05/30 07:33:59;;;;;;;10.23;4.20;;;;;;;24.63;49.45;99481.06;5031429;28;20051;-31
2022/05/30 07:36:28;;;;;;;8.30;4.88;;;;;;;24.86;48.74;99473.41;5067411;28;20032;-30
2022/05/30 07:38:54;;;;;;;8.40;4.13;;;;;;;24.65;49.11;99467.91;5048893;28;20028;-36
2022/05/30 07:41:22;;;;;;;10.93;4.72;;;;;;;24.92;48.14;99478.69;5048707;28;20056;-31
2022/05/30 07:43:48;;;;;;;8.60;4.72;;;;;;;25.05;48.96;99467.53;5048246;28;20039;-29
2022/05/30 07:46:16;;;;;;;7.55;4.50;;;;;;;25.01;47.65;99484.91;5048124;28;20580;-31
2022/05/30 07:48:42;;;;;;;9.73;5.03;;;;;;;25.10;46.94;99469.28;5048570;28;20040;-30
2022/05/30 07:51:09;;;;;;;11.27;4.75;;;;;;;24.72;45.88;99472.03;5048360;28;20131;-31
2022/05/30 07:53:37;;;;;;;7.30;4.80;;;;;;;25.00;47.00;99469.66;5048409;28;20032;-30
2022/05/30 07:56:11;;;;;;;10.63;5.07;;;;;;;25.04;46.48;99481.50;5048383;28;20039;-30
2022/05/30 07:58:37;;;;;;;10.70;5.18;;;;;;;25.08;45.09;99493.34;5048335;28;20036;-30
2022/05/30 08:01:04;;;;;;;11.38;5.60;;;;;;;24.83;46.62;99482.25;5066334;28;20024;-31
2022/05/30 08:03:31;;;;;;;12.15;5.18;;;;;;;25.12;47.35;99488.06;5066854;28;20028;-33
2022/05/30 08:06:05;;;;;;;9.77;5.20;;;;;;;25.54;45.83;99483.47;5048100;28;20036;-29
2022/05/30 08:08:30;;;;;;;10.75;5.47;;;;;;;25.81;44.91;99464.91;5048261;28;20817;-31
2022/05/30 08:10:56;;;;;;;11.95;5.38;;;;;;;25.97;45.66;99490.50;5069508;28;20021;-34
2022/05/30 08:13:21;;;;;;;8.50;4.68;;;;;;;26.07;44.29;99494.72;5070187;28;20468;-31
2022/05/30 08:15:47;;;;;;;7.63;4.88;;;;;;;25.86;44.14;99492.00;5069080;28;20028;-30
2022/05/30 08:18:17;;;;;;;9.00;4.80;;;;;;;25.72;44.34;99480.56;5070499;28;20024;-32
2022/05/30 08:20:43;;;;;;;8.57;4.63;;;;;;;25.99;43.28;99499.16;5052368;28;20032;-30
2022/05/30 08:23:09;;;;;;;8.25;5.03;;;;;;;26.13;43.53;99503.53;5070094;28;20032;-33
2022/05/30 08:25:37;;;;;;;9.88;5.10;;;;;;;25.90;44.33;99501.16;5052075;28;20114;-31
2022/05/30 08:28:03;;;;;;;8.85;5.20;;;;;;;25.99;43.71;99504.63;5051776;28;20032;-29
2022/05/30 08:30:29;;;;;;;12.95;5.72;;;;;;;26.39;43.53;99511.44;5070007;28;20028;-31
2022/05/30 08:32:54;;;;;;;9.75;5.30;;;;;;;26.65;42.37;99514.72;5069749;28;20139;-32
2022/05/30 08:35:20;;;;;;;10.00;5.13;;;;;;;26.77;41.59;99500.25;5069517;28;20056;-30
2022/05/30 08:37:47;;;;;;;10.13;5.55;;;;;;;27.14;42.14;99511.19;5069634;28;20078;-31
2022/05/30 08:43:48;;;;;;;10.65;5.35;;;;;;;26.85;42.96;99518.50;5069720;28;20043;-30
2022/05/30 08:46:36;;;;;;;9.43;5.25;;;;;;;26.56;42.19;99524.13;5050138;28;20539;-32
2022/05/30 08:49:13;;;;;;;8.40;5.45;;;;;;;26.74;43.63;99500.94;5069375;28;20041;-31
2022/05/30 08:51:57;;;;;;;;;;;;;;;27.18;42.42;99520.31;5068707;28;20023;-30
2022/05/30 08:54:42;;;;;;;10.27;4.82;;;;;;;27.25;42.06;99528.75;5068199;28;19923;-32
2022/05/30 08:57:16;;;;;;;7.50;4.95;;;;;;;27.35;40.34;99530.25;5058111;28;20075;-31
2022/05/30 08:59:51;;;;;;;7.53;4.80;;;;;;;27.44;41.38;99530.09;5051125;28;20024;-30
2022/05/30 09:02:34;;;;;;;9.38;4.90;;;;;;;27.74;39.48;99540.78;5069747;28;20040;-30
2022/05/30 09:05:07;;;;;;;7.45;4.80;;;;;;;27.77;39.83;99529.91;5051423;28;20033;-33
2022/05/30 09:07:41;;;;;;;9.10;4.93;;;;;;;27.58;41.25;99532.47;5068860;28;20066;-32
2022/05/30 09:10:13;;;;;;;9.48;5.03;;;;;;;27.62;40.12;99539.69;5069518;28;20028;-31
2022/05/30 09:12:50;;;;;;;8.90;4.85;;;;;;;27.77;40.65;99531.88;5050952;28;20032;-33
2022/05/30 09:15:24;;;;;;;;;;;;;;;28.04;38.43;99542.06;5067830;28;20024;-35
2022/05/30 09:18:04;;;;;;;7.88;4.82;;;;;;;28.04;39.55;99546.75;5067655;28;20501;-33
2022/05/30 09:20:31;;;;;;;8.45;4.82;;;;;;;28.66;39.82;99541.75;5050761;28;20123;-32
2022/05/30 09:22:57;;;;;;;;;;;;;;;28.99;38.27;99537.84;5068902;28;20029;-30
2022/05/30 09:28:16;;;;;;;7.72;4.32;;;;;;;28.89;38.42;99549.38;5069241;28;20047;-32
2022/05/30 09:30:57;;;;;;;8.70;5.25;;;;;;;28.92;39.76;99546.72;5068624;28;20029;-31
2022/05/30 09:33:32;;;;;;;9.40;4.72;;;;;;;28.60;39.07;99549.44;5068622;28;20028;-38
2022/05/30 09:36:12;;;;;;;6.95;4.03;;;;;;;28.39;39.42;99549.66;5068344;28;20060;-30
2022/05/30 09:38:55;;;;;;;11.15;4.75;;;;;;;28.40;37.24;99554.00;5068767;28;20025;-31
2022/05/30 09:41:46;;;;;;;10.95;5.20;;;;;;;28.74;38.62;99551.75;5069216;28;20076;-32
2022/05/30 09:44:18;;;;;;;9.80;4.22;;;;;;;28.69;37.59;99549.28;5050646;28;20029;-37
2022/05/30 09:46:52;;;;;;;7.57;4.20;;;;;;;28.45;38.64;99536.50;5068756;28;20029;-31
2022/05/30 09:49:23;;;;;;;6.78;4.30;;;;;;;29.03;38.04;99536.00;5050249;28;20507;-31
2022/05/30 09:51:52;;;;;;;8.55;4.35;;;;;;;29.13;37.62;99542.91;5050475;28;20036;-31
2022/05/30 09:54:30;;;;;;;8.90;4.15;;;;;;;29.41;36.08;99538.06;5050351;28;20101;-38
2022/05/30 09:57:05;;;;;;;7.57;4.15;;;;;;;29.77;34.55;99543.56;5067219;28;20418;-31
2022/05/30 09:59:34;;;;;;;7.35;3.53;;;;;;;29.62;36.71;99548.72;5066908;28;20024;-31
2022/05/30 10:02:00;;;;;;;7.15;3.90;;;;;;;29.33;34.57;99544.56;5050086;28;20032;-31
2022/05/30 10:04:31;;;;;;;8.90;4.30;;;;;;;29.64;35.72;99540.91;5068389;28;20082;-31
2022/05/30 10:07:05;;;;;;;6.75;3.75;;;;;;;29.68;32.81;99549.25;5050110;28;20032;-32
2022/05/30 10:09:33;;;;;;;6.30;3.30;;;;;;;29.63;34.63;99544.03;5050066;28;20025;-34
2022/05/30 10:11:59;;;;;;;7.60;3.80;;;;;;;29.49;35.13;99544.53;5049609;28;20408;-35
2022/05/30 10:14:29;;;;;;;7.85;3.58;;;;;;;29.51;34.72;99536.72;5049776;28;20029;-32
2022/05/30 10:16:58;;;;;;;6.68;3.58;;;;;;;29.57;33.21;99543.53;5050322;28;20031;-30
2022/05/30 10:19:30;;;;;;;8.63;3.58;;;;;;;29.53;34.63;99555.59;5033465;28;20036;-37
2022/05/30 10:28:35;;;;;;;7.60;3.40;;;;;;;29.87;33.57;99547.69;5067564;28;20093;-34
2022/05/30 10:31:16;;;;;;;6.53;2.97;;;;;;;30.25;31.37;99546.88;5053740;28;20048;-38
2022/05/30 10:34:02;;;;;;;6.15;3.10;;;;;;;30.31;30.85;99548.19;5065069;28;20040;-29
2022/05/30 10:37:16;;;;;;;7.35;3.30;;;;;;;30.64;30.74;99547.59;5066119;28;20044;-33
2022/05/30 10:40:01;;;;;;;10.75;3.67;;;;;;;30.72;32.37;99554.03;4995011;28;20205;-30
2022/05/30 10:42:39;;;;;;;7.13;3.60;;;;;;;30.88;32.19;99555.91;5053010;28;20087;-30
2022/05/30 10:45:37;;;;;;;5.57;3.30;;;;;;;31.09;31.00;99552.69;5067370;28;20038;-30
2022/05/30 10:48:07;;;;;;;10.18;3.90;;;;;;;31.40;31.32;99543.28;5053034;28;20504;-32
2022/05/30 10:50:43;;;;;;;9.20;3.08;;;;;;;31.50;30.06;99534.41;5049458;28;20120;-33
2022/05/30 10:53:28;;;;;;;8.20;3.72;;;;;;;31.55;30.41;99545.13;5049133;28;20115;-32
2022/05/30 10:55:58;;;;;;;6.32;3.15;;;;;;;31.99;31.62;99541.72;5066420;28;20045;-32
2022/05/30 10:58:34;;;;;;;7.05;3.20;;;;;;;31.23;31.49;99528.09;5049203;28;20028;-35
2022/05/30 11:01:12;;;;;;;5.55;2.97;;;;;;;31.24;30.93;99544.28;5049106;28;20036;-40
2022/05/30 11:03:48;;;;;;;6.80;2.65;;;;;;;31.36;29.77;99540.47;5066872;28;20454;-37
2022/05/30 11:06:24;;;;;;;5.15;2.90;;;;;;;31.42;29.41;99524.44;5049053;28;20032;-32
2022/05/30 11:08:58;;;;;;;5.03;2.80;;;;;;;31.88;28.56;99545.53;5049172;28;20032;-34
2022/05/30 11:11:39;;;;;;;5.72;2.80;;;;;;;32.06;29.28;99523.69;5067272;28;20032;-38
2022/05/30 11:14:59;;;;;;;9.63;2.90;;;;;;;32.53;27.24;99538.72;5048801;28;20039;-33
2022/05/30 11:17:34;;;;;;;4.55;2.60;;;;;;;32.82;28.12;99534.28;4985141;28;20053;-32
2022/05/30 11:20:22;;;;;;;5.13;2.95;;;;;;;32.34;28.41;99526.72;5030627;28;20044;-33
2022/05/30 11:22:54;;;;;;;5.40;3.08;;;;;;;31.94;28.42;99522.75;5048625;28;20110;-36
2022/05/30 11:25:57;;;;;;;5.78;2.90;;;;;;;32.48;29.85;99530.81;5066728;28;20032;-31
2022/05/30 11:28:34;;;;;;;4.35;2.65;;;;;;;32.22;26.68;99538.03;5066810;28;20023;-32
2022/05/30 11:31:05;;;;;;;8.15;3.10;;;;;;;32.62;29.07;99533.72;5065296;28;20551;-33
2022/05/30 11:33:30;;;;;;;6.85;2.78;;;;;;;32.71;27.46;99525.13;5066175;28;20051;-37
2022/05/30 11:36:29;;;;;;;4.78;2.97;;;;;;;32.55;27.39;99528.13;5066421;28;20109;-32
2022/05/30 11:38:57;;;;;;;6.40;3.15;;;;;;;33.46;28.60;99514.59;5066645;28;20066;-31
2022/05/30 11:41:29;;;;;;;7.13;3.22;;;;;;;33.58;26.67;99524.53;5065243;28;20056;-35
2022/05/30 11:44:39;;;;;;;5.63;3.08;;;;;;;34.01;26.60;99533.81;5066613;28;20208;-31
2022/05/30 11:47:32;;;;;;;6.95;2.83;;;;;;;33.79;27.18;99526.63;5004591;28;20177;-32
2022/05/30 11:50:21;;;;;;;5.00;2.53;;;;;;;33.97;25.91;99521.94;5004086;28;20048;-31
2022/05/30 11:53:32;;;;;;;6.18;3.00;;;;;;;34.00;25.47;99528.66;5036714;28;20040;-31
2022/05/30 11:56:26;;;;;;;5.20;2.40;;;;;;;34.65;25.11;99529.59;5066396;28;20597;-32
2022/05/30 11:59:23;;;;;;;7.90;4.00;;;;;;;34.91;26.11;99533.16;5065061;28;20674;-33
2022/05/30 12:01:53;;;;;;;8.02;2.92;;;;;;;34.65;23.32;99524.06;5066468;28;20029;-32
2022/05/30 12:04:58;;;;;;;6.07;2.60;;;;;;;34.90;23.77;99537.13;5048619;28;20153;-31
2022/05/30 12:07:38;;;;;;;6.90;2.88;;;;;;;35.16;24.27;99533.94;4984088;28;20495;-32